Darstellungsparameter: Aktuell verwendete Einstellungen:
Skalierung der Graphiken ... ?
xyx+y,   Skalierungsfaktor:      Skalierung: Modus: x, Faktor: 1
Darstellungszeitraum ... ?
Vom - - bis: - -   Zeitraum: 12.07.2020 - 12.07.2020
Min/Max/Avg-Anzeige ... ?
Zeige MMA aktuell
Zeige MMA Monat
Zeige MMA alles
Zeige --A aktuell
Zeige --A Monat
Zeige --A alles
Keine MMA-Anzeige
MMA:
Average (ber die Originaldaten)
MMA-Basis: 12.07.2020 - 12.07.2020
Quicknavigation für Darstellung... ?
Tage:      1T, 2T, 3T, 5T -1T -2T -3T -5T +1T +2T +3T +5T
Wochen: 1W, 2W, 3W -1W -2W -3W +1W +2W +3W
Monate: 1M, 3M, 6M -1M -3M -6M +1M +3M +6M
Jahre:    1J, 3J, 5J, 10J -1J -3J -5J -10J +1J +3J +5J +10J
Nutze für die Darstellung ... ?
Originaldaten oder Mittelwerte auf ...
Stundenbasis Tagesbasis Wochenbasis
Monatsbasis Jahresbasis      Datenbasis: Original-Daten
Darstellen als:
Statistik (Auto) Statistik J:M      Darstellung:
Zur Graphik,    zurück zur Übersicht aller Sensoren.
 
Tabellarische Datenbersicht: ?
 
Sensor: Nr:Datum:Temp:Feuchte:
Aussen-T/F 1 12-07-2020 00:09:17 13.5 C 34 %
2 12-07-2020 00:19:17 13.5 C 34 %
3 12-07-2020 00:29:17 13.2 C 34 %
4 12-07-2020 00:39:17 13.2 C 35 %
5 12-07-2020 00:49:17 13.2 C 35 %
6 12-07-2020 00:59:17 13 C 35 %
7 12-07-2020 01:09:17 12.5 C 36 %
8 12-07-2020 01:19:17 12.5 C 37 %
9 12-07-2020 01:29:17 12.4 C 37 %
10 12-07-2020 01:39:17 11.8 C 39 %
11 12-07-2020 01:49:17 11.6 C 39 %
12 12-07-2020 01:59:17 11.6 C 39 %
13 12-07-2020 02:09:18 11.7 C 39 %
14 12-07-2020 02:19:17 11.5 C 39 %
15 12-07-2020 02:29:17 11.4 C 40 %
16 12-07-2020 02:39:17 11.1 C 40 %
17 12-07-2020 02:49:17 10.6 C 41 %
18 12-07-2020 02:59:17 10.4 C 42 %
19 12-07-2020 03:09:17 10.1 C 42 %
20 12-07-2020 03:19:17 10 C 43 %
21 12-07-2020 03:29:17 10 C 43 %
22 12-07-2020 03:39:18 9.8 C 43 %
23 12-07-2020 03:49:17 9.6 C 44 %
24 12-07-2020 03:59:17 9.6 C 44 %
25 12-07-2020 04:09:17 9.3 C 44 %
Sensor: Nr:Datum:Temp:Feuchte:
Aussen-T/F 26 12-07-2020 04:19:17 9.4 C 45 %
27 12-07-2020 04:29:17 9.2 C 45 %
28 12-07-2020 04:39:17 9.2 C 45 %
29 12-07-2020 04:49:17 8.9 C 45 %
30 12-07-2020 04:59:17 9 C 45 %
31 12-07-2020 05:09:17 9 C 45 %
32 12-07-2020 05:19:17 9 C 45 %
33 12-07-2020 05:29:17 8.6 C 45 %
34 12-07-2020 05:39:17 8.9 C 46 %
35 12-07-2020 05:49:17 8.7 C 46 %
36 12-07-2020 05:59:17 8.7 C 46 %
37 12-07-2020 06:09:17 8.7 C 46 %
38 12-07-2020 06:19:17 8.8 C 46 %
39 12-07-2020 06:29:17 9 C 45 %
40 12-07-2020 06:39:18 9 C 45 %
41 12-07-2020 06:49:17 9.2 C 45 %
42 12-07-2020 06:59:17 9.2 C 45 %
43 12-07-2020 07:09:18 9.3 C 45 %
44 12-07-2020 07:19:17 9.5 C 45 %
45 12-07-2020 07:29:17 9.7 C 45 %
46 12-07-2020 07:39:18 10 C 44 %
47 12-07-2020 07:49:18 10.1 C 44 %
48 12-07-2020 07:59:18 10.3 C 45 %
49 12-07-2020 08:09:18 10.5 C 44 %
50 12-07-2020 08:19:18 10.7 C 45 %
Sensor: Nr:Datum:Temp:Feuchte:
Aussen-T/F 51 12-07-2020 08:29:18 11.1 C 43 %
52 12-07-2020 08:39:18 11.4 C 43 %
53 12-07-2020 08:49:17 12 C 42 %
54 12-07-2020 08:59:17 12.8 C 40 %
55 12-07-2020 09:09:17 13.3 C 39 %
56 12-07-2020 09:19:17 14 C 38 %
57 12-07-2020 09:29:17 14.8 C 37 %
58 12-07-2020 09:39:17 16.3 C 35 %
59 12-07-2020 09:49:17 16.7 C 32 %
60 12-07-2020 09:59:17 17.5 C 31 %
61 12-07-2020 10:09:17 19.5 C 29 %
62 12-07-2020 10:19:17 19.7 C 27 %
63 12-07-2020 10:29:17 20 C 27 %
64 12-07-2020 10:39:17 19.6 C 25 %
65 12-07-2020 10:49:17 20.1 C 25 %
66 12-07-2020 10:59:17 19.7 C 25 %
67 12-07-2020 11:09:17 20.4 C 25 %
68 12-07-2020 11:19:17 22.5 C 22 %
69 12-07-2020 11:29:17 24.8 C 20 %
70 12-07-2020 11:39:18 24.2 C 20 %
71 12-07-2020 11:49:17 25.2 C 20 %
72 12-07-2020 11:59:17 25.8 C 20 %
73 12-07-2020 12:09:18 25.2 C 20 %
74 12-07-2020 12:19:17 26.6 C 20 %
75 12-07-2020 12:29:17 26.7 C 20 %
Sensor: Nr:Datum:Temp:Feuchte:
Aussen-T/F 76 12-07-2020 12:39:17 27 C 20 %
77 12-07-2020 12:49:18 26.4 C 20 %
78 12-07-2020 12:59:18 27.4 C 20 %
79 12-07-2020 13:09:18 26.6 C 20 %
80 12-07-2020 13:19:17 25 C 20 %
81 12-07-2020 13:29:17 27.2 C 20 %
82 12-07-2020 13:39:17 26.2 C 20 %
83 12-07-2020 13:49:17 27.1 C 20 %
84 12-07-2020 13:59:17 27.4 C 20 %
85 12-07-2020 14:09:18 23 C 20 %
86 12-07-2020 14:19:17 28.4 C 20 %
87 12-07-2020 14:29:17 29.4 C 20 %
88 12-07-2020 14:39:17 24.7 C 20 %
89 12-07-2020 14:49:17 27 C 20 %
90 12-07-2020 14:59:17 28.8 C 20 %
91 12-07-2020 15:09:17 30.9 C 20 %
92 12-07-2020 15:19:17 32 C 20 %
93 12-07-2020 15:29:17 28 C 20 %
94 12-07-2020 15:39:17 29.6 C 20 %
95 12-07-2020 15:49:17 29 C 20 %
96 12-07-2020 15:59:17 29.4 C 20 %
97 12-07-2020 16:09:17 24.3 C 20 %
98 12-07-2020 16:19:17 28.1 C 20 %
99 12-07-2020 16:29:17 29.3 C 20 %
100 12-07-2020 16:39:17 31.7 C 20 %
Sensor: Nr:Datum:Temp:Feuchte:
Aussen-T/F 101 12-07-2020 16:49:17 30.5 C 20 %
102 12-07-2020 16:59:17 31.2 C 20 %
103 12-07-2020 17:09:18 29 C 20 %
104 12-07-2020 17:19:17 25.5 C 20 %
105 12-07-2020 17:29:17 24 C 20 %
106 12-07-2020 17:39:18 25.9 C 20 %
107 12-07-2020 17:49:17 26.8 C 20 %
108 12-07-2020 17:59:17 29.8 C 20 %
109 12-07-2020 18:09:17 28.6 C 20 %
110 12-07-2020 18:19:17 28.7 C 20 %
111 12-07-2020 18:29:17 25 C 20 %
112 12-07-2020 18:39:17 24.2 C 20 %
113 12-07-2020 18:49:17 23.6 C 20 %
114 12-07-2020 18:59:17 23.6 C 20 %
115 12-07-2020 19:09:17 22.8 C 20 %
116 12-07-2020 19:19:18 22.7 C 20 %
117 12-07-2020 19:29:18 22.6 C 20 %
118 12-07-2020 19:39:18 22.8 C 20 %
119 12-07-2020 19:49:17 22.8 C 20 %
120 12-07-2020 19:59:17 22.7 C 20 %
121 12-07-2020 20:09:18 22.7 C 20 %
122 12-07-2020 20:19:17 22.5 C 20 %
123 12-07-2020 20:29:17 22.5 C 20 %
124 12-07-2020 20:39:18 22.2 C 20 %
125 12-07-2020 20:49:17 22 C 20 %
Sensor: Nr:Datum:Temp:Feuchte:
Aussen-T/F 126 12-07-2020 20:59:17 21.8 C 20 %
127 12-07-2020 21:09:17 21.4 C 20 %
128 12-07-2020 21:19:17 20.4 C 20 %
129 12-07-2020 21:29:17 19.1 C 22 %
130 12-07-2020 21:39:17 18.3 C 23 %
131 12-07-2020 21:49:17 17.8 C 25 %
132 12-07-2020 21:59:17 17.5 C 25 %
133 12-07-2020 22:09:17 17.2 C 25 %
134 12-07-2020 22:19:17 17.1 C 25 %
135 12-07-2020 22:29:17 17 C 25 %
136 12-07-2020 22:39:18 16.8 C 26 %
137 12-07-2020 22:49:17 16.8 C 26 %
138 12-07-2020 22:59:17 16.2 C 27 %
139 12-07-2020 23:09:17 15.7 C 28 %
140 12-07-2020 23:19:17 15.1 C 29 %
141 12-07-2020 23:29:17 14.8 C 30 %
142 12-07-2020 23:39:18 14.5 C 31 %
143 12-07-2020 23:49:17 14.8 C 30 %
144 12-07-2020 23:59:17 14.7 C 30 %
Sensor: Nr:Datum:Temp:Feuchte:

Legende:
   Min
   Max


Maximal/Minimal-Werte vom 12.07.2020 - 12.07.2020

Sensor Min Max Avg
Temp
(Aussen-T/F)
8.6 °C
12-07-2020  05:29:17
32 °C
12-07-2020  15:19:17
18.37 °C
Feuchte
(Aussen-T/F)
20 %
12-07-2020  11:29:17
46 %
12-07-2020  05:39:17
29.98 %
Temp
(G-T/H)
°C
-- 
°C 0 °C
Feuchte
(G-T/H)
%
-- 
% 0 %

Die Daten stammen von einer Davis Vantage Pro 2 Wetter-Station und werden unter Linux mit der Software wview2wettercgi und aufbereitet. Alle Angaben erfolgen ohne Gewähr für ihre Vollständigkeit oder Richtigkeit.
Kontakt: Rainer Krienke krienke@uni-koblenz.de . Meine Webseiten an der Uni Koblenz oder privat.
Version: $Revision: 0.78 $